createdAt,value
2023-04-19T00:02:18.887Z,20.60
2023-04-19T00:04:47.821Z,24.77
2023-04-19T00:07:17.305Z,24.33
2023-04-19T00:09:44.961Z,19.20
2023-04-19T00:12:12.433Z,18.27
2023-04-19T00:14:39.942Z,20.48
2023-04-19T00:17:07.530Z,21.42
2023-04-19T00:19:35.118Z,19.33
2023-04-19T00:22:02.671Z,22.45
2023-04-19T00:24:30.849Z,22.23
2023-04-19T00:26:59.453Z,20.48
2023-04-19T00:29:27.192Z,20.38
2023-04-19T00:31:54.744Z,20.10
2023-04-19T00:34:22.289Z,19.63
2023-04-19T00:36:49.922Z,22.52
2023-04-19T00:39:17.548Z,20.10
2023-04-19T00:41:45.069Z,22.52
2023-04-19T00:44:12.784Z,20.95
2023-04-19T00:46:40.955Z,25.10
2023-04-19T00:49:09.413Z,23.10
2023-04-19T00:51:37.412Z,21.55
2023-04-19T00:54:05.088Z,23.25
2023-04-19T00:56:34.855Z,22.75
2023-04-19T00:59:03.309Z,20.95
2023-04-19T01:01:32.522Z,22.30
2023-04-19T01:04:02.107Z,22.17
2023-04-19T01:06:30.812Z,22.23
2023-04-19T01:08:58.576Z,24.55
2023-04-19T01:11:27.127Z,19.30
2023-04-19T01:13:55.930Z,19.95
2023-04-19T01:16:24.102Z,25.00
2023-04-19T01:18:52.178Z,24.30
2023-04-19T01:21:19.967Z,21.05
2023-04-19T01:23:47.454Z,20.60
2023-04-19T01:26:14.977Z,23.98
2023-04-19T01:28:42.549Z,24.13
2023-04-19T01:31:10.027Z,18.45
2023-04-19T01:33:37.620Z,23.75
2023-04-19T01:36:05.577Z,19.60
2023-04-19T01:38:33.142Z,21.48
2023-04-19T01:41:00.730Z,20.23
2023-04-19T01:43:28.269Z,18.67
2023-04-19T01:45:55.882Z,20.02
2023-04-19T01:48:23.403Z,18.67
2023-04-19T01:50:51.053Z,20.20
2023-04-19T01:53:18.575Z,19.05
2023-04-19T01:55:46.492Z,20.75
2023-04-19T01:58:14.035Z,20.98
2023-04-19T02:00:41.659Z,20.65
2023-04-19T02:03:09.358Z,20.83
2023-04-19T02:05:39.677Z,23.58
2023-04-19T02:08:07.701Z,20.40
2023-04-19T02:10:35.507Z,20.05
2023-04-19T02:13:03.031Z,18.80
2023-04-19T02:15:30.679Z,21.23
2023-04-19T02:18:00.374Z,23.05
2023-04-19T02:20:28.150Z,20.52
2023-04-19T02:22:55.672Z,18.85
2023-04-19T02:25:23.235Z,20.77
2023-04-19T02:27:51.205Z,21.02
2023-04-19T02:30:18.895Z,21.25
2023-04-19T02:32:48.742Z,18.42
2023-04-19T02:35:17.381Z,25.05
2023-04-19T02:37:45.490Z,17.60
2023-04-19T02:40:13.042Z,20.30
2023-04-19T02:42:40.608Z,18.88
2023-04-19T02:45:08.909Z,21.55
2023-04-19T02:47:36.593Z,18.13
2023-04-19T02:50:04.468Z,17.92
2023-04-19T02:52:31.992Z,20.85
2023-04-19T02:54:59.439Z,19.88
2023-04-19T02:57:26.979Z,19.48
2023-04-19T02:59:54.482Z,21.05
2023-04-19T03:02:22.127Z,19.88
2023-04-19T03:04:49.992Z,21.10
2023-04-19T03:07:17.596Z,18.35
2023-04-19T03:09:45.124Z,20.60
2023-04-19T03:12:12.668Z,21.23
2023-04-19T03:14:40.146Z,17.88
2023-04-19T03:17:07.669Z,17.52
2023-04-19T03:19:35.299Z,17.52
2023-04-19T03:22:02.787Z,16.88
2023-04-19T03:24:31.280Z,21.10
2023-04-19T03:26:59.248Z,20.45
2023-04-19T03:29:26.741Z,18.77
2023-04-19T03:31:54.288Z,18.50
2023-04-19T03:34:21.846Z,18.60
2023-04-19T03:36:49.505Z,21.75
2023-04-19T03:39:16.999Z,19.33
2023-04-19T03:41:44.557Z,18.58
2023-04-19T03:44:12.066Z,20.23
2023-04-19T03:46:39.584Z,20.55
2023-04-19T03:49:07.559Z,22.55
2023-04-19T03:51:35.089Z,19.58
2023-04-19T03:54:02.998Z,19.83
2023-04-19T03:56:30.619Z,18.80
2023-04-19T03:58:58.413Z,22.00
2023-04-19T04:01:27.137Z,17.75
2023-04-19T04:03:54.979Z,16.55
2023-04-19T04:06:22.588Z,22.33
2023-04-19T04:08:50.064Z,24.35
2023-04-19T04:11:17.646Z,19.55
2023-04-19T04:13:46.675Z,20.55
2023-04-19T04:16:14.259Z,18.02
2023-04-19T04:18:42.153Z,18.52
2023-04-19T04:21:09.944Z,18.50
2023-04-19T04:23:38.122Z,20.10
2023-04-19T04:26:06.393Z,22.20
2023-04-19T04:28:34.005Z,17.80
2023-04-19T04:31:01.640Z,19.38
2023-04-19T04:33:29.299Z,23.20
2023-04-19T04:35:57.967Z,20.45
2023-04-19T04:38:25.848Z,22.55
2023-04-19T04:40:54.947Z,22.23
2023-04-19T04:43:24.273Z,24.30
2023-04-19T04:45:52.157Z,24.23
2023-04-19T04:48:20.067Z,23.17
2023-04-19T04:50:47.556Z,22.63
2023-04-19T04:53:15.345Z,21.05
2023-04-19T04:55:42.822Z,22.35
2023-04-19T04:58:10.681Z,19.67
2023-04-19T05:00:38.098Z,23.35
2023-04-19T05:03:05.887Z,21.55
2023-04-19T05:05:34.316Z,24.27
2023-04-19T05:08:01.924Z,24.67
2023-04-19T05:10:29.357Z,21.88
2023-04-19T05:12:57.053Z,20.67
2023-04-19T05:15:24.576Z,23.88
2023-04-19T05:17:52.125Z,21.40
2023-04-19T05:20:19.679Z,23.48
2023-04-19T05:22:47.038Z,27.85
2023-04-19T05:25:14.653Z,26.52
2023-04-19T05:27:42.047Z,22.60
2023-04-19T05:30:09.635Z,24.15
2023-04-19T05:32:37.245Z,24.27
2023-04-19T05:35:05.109Z,21.27
2023-04-19T05:37:32.497Z,25.83
2023-04-19T05:39:59.919Z,22.63
2023-04-19T05:42:27.294Z,23.00
2023-04-19T05:44:54.699Z,23.88
2023-04-19T05:47:22.414Z,23.85
2023-04-19T05:49:49.871Z,24.77
2023-04-19T05:52:17.287Z,18.55
2023-04-19T05:54:45.182Z,22.98
2023-04-19T05:57:13.218Z,21.67
2023-04-19T05:59:41.737Z,22.08
2023-04-19T06:02:09.667Z,24.40
2023-04-19T06:04:37.543Z,23.30
2023-04-19T06:07:10.535Z,24.42
2023-04-19T06:09:45.417Z,23.60
2023-04-19T06:12:12.855Z,23.17
2023-04-19T06:14:40.368Z,22.90
2023-04-19T06:17:07.871Z,23.75
2023-04-19T06:19:35.325Z,19.95
2023-04-19T06:22:02.692Z,18.02
2023-04-19T06:24:30.093Z,20.25
2023-04-19T06:26:58.002Z,23.95
2023-04-19T06:29:26.152Z,16.85
2023-04-19T06:31:53.874Z,20.58
2023-04-19T06:34:21.724Z,20.27
2023-04-19T06:36:49.134Z,19.38
2023-04-19T06:39:18.008Z,18.77
2023-04-19T06:41:45.713Z,19.90
2023-04-19T06:44:13.681Z,21.23
2023-04-19T06:46:41.492Z,18.40
2023-04-19T06:49:08.873Z,18.50
2023-04-19T06:51:36.395Z,19.50
2023-04-19T06:54:04.164Z,16.65
2023-04-19T06:56:45.933Z,18.88
2023-04-19T06:59:18.321Z,18.98
2023-04-19T07:01:47.264Z,19.90
2023-04-19T07:04:15.678Z,15.30
2023-04-19T07:06:43.527Z,16.92
2023-04-19T07:09:10.951Z,15.80
2023-04-19T07:11:38.313Z,15.35
2023-04-19T07:14:05.997Z,13.52
2023-04-19T07:16:34.017Z,17.67
2023-04-19T07:19:01.432Z,15.38
2023-04-19T07:21:33.025Z,17.85
2023-04-19T07:24:00.462Z,18.10
2023-04-19T07:26:27.937Z,14.70
2023-04-19T07:28:56.181Z,14.63
2023-04-19T07:31:25.039Z,17.45
2023-04-19T07:33:52.677Z,14.98
2023-04-19T07:36:21.510Z,16.23
2023-04-19T07:38:49.806Z,14.88
2023-04-19T07:41:18.292Z,11.10
2023-04-19T07:43:45.866Z,13.43
2023-04-19T07:46:16.142Z,14.43
2023-04-19T07:48:43.784Z,8.57
2023-04-19T07:51:17.829Z,11.15
2023-04-19T07:53:47.703Z,10.27
2023-04-19T07:56:15.764Z,10.63
2023-04-19T07:58:44.004Z,12.15
2023-04-19T08:01:12.851Z,10.75
2023-04-19T08:03:40.520Z,9.80
2023-04-19T08:06:09.188Z,10.50
2023-04-19T08:08:37.285Z,10.50
2023-04-19T08:11:06.245Z,10.90
2023-04-19T08:13:33.856Z,9.05
2023-04-19T08:18:32.262Z,9.68
2023-04-19T08:20:59.959Z,8.68
2023-04-19T08:23:37.884Z,8.00
2023-04-19T08:26:12.803Z,8.27
2023-04-19T08:28:40.334Z,9.48
2023-04-19T08:31:08.097Z,10.63
2023-04-19T08:33:35.763Z,9.25
2023-04-19T08:36:03.486Z,9.52
2023-04-19T08:38:30.974Z,6.97
2023-04-19T08:40:58.467Z,8.35
2023-04-19T08:43:28.891Z,7.60
2023-04-19T08:45:57.748Z,9.50
2023-04-19T08:48:27.104Z,8.55
2023-04-19T08:51:04.519Z,8.85
2023-04-19T08:53:36.008Z,7.85
2023-04-19T08:58:51.945Z,11.20
2023-04-19T09:04:04.922Z,8.48
2023-04-19T09:06:41.271Z,6.22
2023-04-19T09:11:58.264Z,6.18
2023-04-19T09:14:27.193Z,7.15
2023-04-19T09:16:54.837Z,5.78
2023-04-19T09:19:25.309Z,10.30
2023-04-19T09:21:54.879Z,6.97
2023-04-19T09:27:28.442Z,8.20
2023-04-19T09:29:57.529Z,8.82
2023-04-19T09:32:26.596Z,10.07
2023-04-19T09:34:58.212Z,7.20
2023-04-19T09:37:56.686Z,6.50
2023-04-19T09:40:28.450Z,6.38
2023-04-19T09:45:42.172Z,8.13
2023-04-19T09:48:10.667Z,6.87
2023-04-19T09:51:03.704Z,7.72
2023-04-19T09:53:35.258Z,6.10
2023-04-19T09:56:03.889Z,8.55
2023-04-19T09:58:46.115Z,7.13
2023-04-19T10:01:18.934Z,6.70
2023-04-19T10:03:50.644Z,6.55
2023-04-19T10:08:51.286Z,6.57
2023-04-19T10:11:22.217Z,8.02
2023-04-19T10:13:54.138Z,6.10
2023-04-19T10:16:21.916Z,9.57
2023-04-19T10:18:50.649Z,7.60
2023-04-19T10:21:20.712Z,6.05
2023-04-19T10:23:48.801Z,6.00
2023-04-19T10:26:16.606Z,7.53
2023-04-19T10:28:44.104Z,6.75
2023-04-19T10:31:14.793Z,6.65
2023-04-19T10:33:42.667Z,7.22
2023-04-19T10:36:11.863Z,6.03
2023-04-19T10:38:49.116Z,8.35
2023-04-19T10:41:18.948Z,7.18
2023-04-19T10:43:55.650Z,5.88
2023-04-19T10:46:23.412Z,9.60
2023-04-19T10:48:53.832Z,7.15
2023-04-19T10:51:24.190Z,7.07
2023-04-19T10:53:56.800Z,8.48
2023-04-19T10:56:33.228Z,7.53
2023-04-19T10:59:11.657Z,7.05
2023-04-19T11:01:45.475Z,7.07
2023-04-19T11:04:19.176Z,9.60
2023-04-19T11:06:52.917Z,9.55
2023-04-19T11:09:42.459Z,9.45
2023-04-19T11:12:13.582Z,8.63
2023-04-19T11:14:46.713Z,6.80
2023-04-19T11:17:25.625Z,6.95
2023-04-19T11:20:08.655Z,8.02
2023-04-19T11:22:38.499Z,7.18
2023-04-19T11:25:09.297Z,7.65
2023-04-19T11:27:38.596Z,5.85
2023-04-19T11:30:12.264Z,6.32
2023-04-19T11:32:49.840Z,5.93
2023-04-19T11:35:36.049Z,8.50
2023-04-19T11:38:05.257Z,6.57
2023-04-19T11:40:33.128Z,7.53
2023-04-19T11:43:02.528Z,6.28
2023-04-19T11:45:40.109Z,6.43
2023-04-19T11:48:18.021Z,6.40
2023-04-19T11:50:46.998Z,8.30
2023-04-19T11:53:24.813Z,6.57
2023-04-19T11:56:08.934Z,5.50
2023-04-19T11:58:50.885Z,5.47
2023-04-19T12:01:22.187Z,7.32
2023-04-19T12:03:59.425Z,6.32
2023-04-19T12:06:33.403Z,6.00
2023-04-19T12:09:01.143Z,6.53
2023-04-19T12:11:44.857Z,7.25
2023-04-19T12:16:40.965Z,7.10
2023-04-19T12:19:14.295Z,4.63
2023-04-19T12:24:09.454Z,6.30
2023-04-19T12:26:37.223Z,8.80
2023-04-19T12:29:05.838Z,5.75
2023-04-19T12:31:33.762Z,6.63
2023-04-19T12:34:01.366Z,6.85
2023-04-19T12:36:30.549Z,5.03
2023-04-19T12:38:58.121Z,4.53
2023-04-19T12:41:25.988Z,4.45
2023-04-19T12:43:53.371Z,4.70
2023-04-19T12:46:20.828Z,5.28
2023-04-19T12:48:48.366Z,7.57
2023-04-19T12:51:15.779Z,4.60
2023-04-19T12:53:49.416Z,4.32
2023-04-19T12:56:17.558Z,4.93
2023-04-19T12:58:44.929Z,4.80
2023-04-19T13:01:12.417Z,4.07
2023-04-19T13:03:40.174Z,3.65
2023-04-19T13:06:07.909Z,5.70
2023-04-19T13:08:44.749Z,5.75
2023-04-19T13:11:15.505Z,6.32
2023-04-19T13:13:43.047Z,4.25
2023-04-19T13:16:11.187Z,4.68
2023-04-19T13:18:38.816Z,2.95
2023-04-19T13:21:08.290Z,4.47
2023-04-19T13:23:36.370Z,3.00
2023-04-19T13:26:03.859Z,3.38
2023-04-19T13:28:31.275Z,2.80
2023-04-19T13:30:58.894Z,3.33
2023-04-19T13:33:27.030Z,1.65
2023-04-19T13:35:54.466Z,2.95
2023-04-19T13:38:21.906Z,1.92
2023-04-19T13:40:49.391Z,3.63
2023-04-19T13:43:16.828Z,3.47
2023-04-19T13:45:44.405Z,2.22
2023-04-19T13:48:11.860Z,2.95
2023-04-19T13:50:39.347Z,2.63
2023-04-19T13:53:06.846Z,2.42
2023-04-19T13:55:34.673Z,3.65
2023-04-19T13:58:02.619Z,1.67
2023-04-19T14:00:30.322Z,2.08
2023-04-19T14:02:58.170Z,3.65
2023-04-19T14:05:25.825Z,1.95
2023-04-19T14:07:53.406Z,5.18
2023-04-19T14:10:20.867Z,1.98
2023-04-19T14:12:49.176Z,3.05
2023-04-19T14:15:16.628Z,2.67
2023-04-19T14:17:44.081Z,3.17
2023-04-19T14:20:12.730Z,3.38
2023-04-19T14:22:40.326Z,4.05
2023-04-19T14:25:08.058Z,4.68
2023-04-19T14:27:36.086Z,2.60
2023-04-19T14:30:03.844Z,2.50
2023-04-19T14:34:59.407Z,2.72
2023-04-19T14:37:26.904Z,3.40
2023-04-19T14:39:54.354Z,4.00
2023-04-19T14:42:23.088Z,2.28
2023-04-19T14:44:52.768Z,2.92
2023-04-19T14:47:21.581Z,2.03
2023-04-19T14:49:50.103Z,6.05
2023-04-19T14:52:17.599Z,2.70
2023-04-19T14:54:45.025Z,4.68
2023-04-19T14:57:13.834Z,2.70
2023-04-19T14:59:41.286Z,2.53
2023-04-19T15:02:10.829Z,6.00
2023-04-19T15:04:41.086Z,3.30
2023-04-19T15:07:09.147Z,2.60
2023-04-19T15:09:36.535Z,3.90
2023-04-19T15:12:04.066Z,4.00
2023-04-19T15:14:31.533Z,2.38
2023-04-19T15:16:58.925Z,2.10
2023-04-19T15:19:26.591Z,2.72
2023-04-19T15:21:54.292Z,4.13
2023-04-19T15:24:21.711Z,3.15
2023-04-19T15:26:49.124Z,2.05
2023-04-19T15:29:16.869Z,2.88
2023-04-19T15:31:44.458Z,2.38
2023-04-19T15:34:11.903Z,2.70
2023-04-19T15:36:42.660Z,1.98
2023-04-19T15:39:10.131Z,3.38
2023-04-19T15:41:37.528Z,3.28
2023-04-19T15:44:05.050Z,2.33
2023-04-19T15:46:32.588Z,3.40
2023-04-19T15:49:00.054Z,2.45
2023-04-19T15:51:27.627Z,2.83
2023-04-19T15:53:55.017Z,2.25
2023-04-19T15:56:22.443Z,3.45
2023-04-19T15:58:49.879Z,2.83
2023-04-19T16:01:19.115Z,2.90
2023-04-19T16:03:47.001Z,2.15
2023-04-19T16:06:14.594Z,3.60
2023-04-19T16:08:42.102Z,5.03
2023-04-19T16:11:09.610Z,2.10
2023-04-19T16:13:37.144Z,2.92
2023-04-19T16:16:04.950Z,1.85
2023-04-19T16:18:33.329Z,3.08
2023-04-19T16:21:00.908Z,2.45
2023-04-19T16:23:28.358Z,2.38
2023-04-19T16:25:56.873Z,3.20
2023-04-19T16:28:24.492Z,3.20
2023-04-19T16:30:52.274Z,2.97
2023-04-19T16:33:19.829Z,2.72
2023-04-19T16:35:48.137Z,2.40
2023-04-19T16:38:15.930Z,2.28
2023-04-19T16:40:46.445Z,6.32
2023-04-19T16:43:13.990Z,2.78
2023-04-19T16:45:43.127Z,4.55
2023-04-19T16:48:10.676Z,4.28
2023-04-19T16:50:38.328Z,3.47
2023-04-19T16:53:05.871Z,5.05
2023-04-19T16:55:33.674Z,5.20
2023-04-19T16:58:01.561Z,5.63
2023-04-19T17:00:29.407Z,3.90
2023-04-19T17:02:57.115Z,3.55
2023-04-19T17:05:24.847Z,3.75
2023-04-19T17:07:53.364Z,3.50
2023-04-19T17:10:22.416Z,4.90
2023-04-19T17:12:50.070Z,6.28
2023-04-19T17:15:17.630Z,4.05
2023-04-19T17:17:45.414Z,3.22
2023-04-19T17:20:15.487Z,6.30
2023-04-19T17:22:42.967Z,3.63
2023-04-19T17:25:10.561Z,4.00
2023-04-19T17:27:39.257Z,4.20
2023-04-19T17:30:07.868Z,5.03
2023-04-19T17:32:35.849Z,4.15
2023-04-19T17:35:04.844Z,3.67
2023-04-19T17:37:32.628Z,3.13
2023-04-19T17:40:00.582Z,6.88
2023-04-19T17:42:28.208Z,6.93
2023-04-19T17:44:55.849Z,4.00
2023-04-19T17:47:23.382Z,4.18
2023-04-19T17:49:51.264Z,4.55
2023-04-19T17:52:18.763Z,5.03
2023-04-19T17:54:46.403Z,4.65
2023-04-19T17:57:13.923Z,4.20
2023-04-19T17:59:41.391Z,6.65
2023-04-19T18:02:10.675Z,5.03
2023-04-19T18:04:39.631Z,3.30
2023-04-19T18:07:07.312Z,3.80
2023-04-19T18:09:34.784Z,5.05
2023-04-19T18:12:02.994Z,3.53
2023-04-19T18:14:30.530Z,5.20
2023-04-19T18:16:58.343Z,5.30
2023-04-19T18:19:27.240Z,3.47
2023-04-19T18:21:54.737Z,5.20
2023-04-19T18:24:22.530Z,4.90
2023-04-19T18:26:50.242Z,4.63
2023-04-19T18:29:19.356Z,7.63
2023-04-19T18:31:46.944Z,4.72
2023-04-19T18:34:14.768Z,4.07
2023-04-19T18:36:42.289Z,5.30
2023-04-19T18:39:10.358Z,3.85
2023-04-19T18:41:37.925Z,4.55
2023-04-19T18:46:36.047Z,4.22
2023-04-19T18:49:03.614Z,5.47
2023-04-19T18:51:31.452Z,4.85
2023-04-19T18:53:58.980Z,4.28
2023-04-19T18:57:01.311Z,4.22
2023-04-19T18:59:14.933Z,4.63
2023-04-19T19:01:45.378Z,5.93
2023-04-19T19:06:51.724Z,4.50
2023-04-19T19:09:22.729Z,3.95
2023-04-19T19:11:56.519Z,5.78
2023-04-19T19:14:24.514Z,5.95
2023-04-19T19:16:52.975Z,5.20
2023-04-19T19:19:22.698Z,4.47
2023-04-19T19:21:52.323Z,4.40
2023-04-19T19:24:19.881Z,4.97
2023-04-19T19:26:48.148Z,4.75
2023-04-19T19:29:16.750Z,4.10
2023-04-19T19:31:44.477Z,4.65
2023-04-19T19:34:24.085Z,3.92
2023-04-19T19:36:55.075Z,3.50
2023-04-19T19:39:22.818Z,3.10
2023-04-19T19:42:05.224Z,2.70
2023-04-19T19:44:33.811Z,4.15
2023-04-19T19:47:01.414Z,4.82
2023-04-19T19:49:28.969Z,4.90
2023-04-19T19:51:59.449Z,4.18
2023-04-19T19:54:27.587Z,4.07
2023-04-19T19:59:30.300Z,5.65
2023-04-19T20:01:59.663Z,4.07
2023-04-19T20:04:27.837Z,3.50
2023-04-19T20:09:28.027Z,3.20
2023-04-19T20:11:55.636Z,3.60
2023-04-19T20:14:24.544Z,2.90
2023-04-19T20:16:52.730Z,3.60
2023-04-19T20:19:20.507Z,4.90
2023-04-19T20:21:48.044Z,3.00
2023-04-19T20:24:15.741Z,3.42
2023-04-19T20:26:43.235Z,3.17
2023-04-19T20:29:10.950Z,2.83
2023-04-19T20:31:38.459Z,3.55
2023-04-19T20:34:05.989Z,4.75
2023-04-19T20:36:33.685Z,2.63
2023-04-19T20:39:06.539Z,2.92
2023-04-19T20:41:34.253Z,3.17
2023-04-19T20:44:02.516Z,3.25
2023-04-19T20:46:30.393Z,3.55
2023-04-19T20:48:58.297Z,5.03
2023-04-19T20:51:27.057Z,5.43
2023-04-19T20:53:54.857Z,2.65
2023-04-19T20:56:23.313Z,2.28
2023-04-19T20:58:50.868Z,3.92
2023-04-19T21:01:18.920Z,3.33
2023-04-19T21:03:46.980Z,5.68
2023-04-19T21:06:14.638Z,3.53
2023-04-19T21:08:42.316Z,3.58
2023-04-19T21:11:09.841Z,3.78
2023-04-19T21:13:37.503Z,1.88
2023-04-19T21:16:05.367Z,2.45
2023-04-19T21:18:32.983Z,3.38
2023-04-19T21:21:00.594Z,2.30
2023-04-19T21:23:28.157Z,3.40
2023-04-19T21:25:55.823Z,3.45
2023-04-19T21:28:25.079Z,3.38
2023-04-19T21:30:53.526Z,3.50
2023-04-19T21:33:21.039Z,2.30
2023-04-19T21:35:48.865Z,3.88
2023-04-19T21:38:16.676Z,5.03
2023-04-19T21:40:44.270Z,3.13
2023-04-19T21:43:11.974Z,2.85
2023-04-19T21:45:39.604Z,2.00
2023-04-19T21:48:07.554Z,5.70
2023-04-19T21:50:35.072Z,2.85
2023-04-19T21:53:02.678Z,3.53
2023-04-19T21:55:32.535Z,6.45
2023-04-19T21:58:02.098Z,3.63
2023-04-19T22:00:30.280Z,3.45
2023-04-19T22:02:58.037Z,3.58
2023-04-19T22:05:25.658Z,3.22
2023-04-19T22:07:53.238Z,6.15
2023-04-19T22:10:21.138Z,2.97
2023-04-19T22:12:57.929Z,4.18
2023-04-19T22:15:27.051Z,3.58
2023-04-19T22:17:54.592Z,3.03
2023-04-19T22:20:22.428Z,3.38
2023-04-19T22:22:50.225Z,6.90
2023-04-19T22:25:17.824Z,3.95
2023-04-19T22:27:45.563Z,4.53
2023-04-19T22:30:13.254Z,2.95
2023-04-19T22:32:40.800Z,3.85
2023-04-19T22:35:09.115Z,6.22
2023-04-19T22:37:37.060Z,4.47
2023-04-19T22:40:06.896Z,3.20
2023-04-19T22:42:34.761Z,3.58
2023-04-19T22:45:02.437Z,4.93
2023-04-19T22:47:31.233Z,3.28
2023-04-19T22:49:58.814Z,4.13
2023-04-19T22:52:26.604Z,4.00
2023-04-19T22:54:54.357Z,4.18
2023-04-19T22:57:21.907Z,3.45
2023-04-19T22:59:49.571Z,2.80
2023-04-19T23:02:17.293Z,4.70
2023-04-19T23:04:44.916Z,3.53
2023-04-19T23:07:12.523Z,4.38
2023-04-19T23:09:40.090Z,4.30
2023-04-19T23:12:08.938Z,4.75
2023-04-19T23:14:39.052Z,3.95
2023-04-19T23:17:08.020Z,3.88
2023-04-19T23:19:36.926Z,2.60
2023-04-19T23:22:04.537Z,5.07
2023-04-19T23:24:32.332Z,3.70
2023-04-19T23:27:00.076Z,3.72
2023-04-19T23:29:27.788Z,4.97
2023-04-19T23:31:55.497Z,1.77
2023-04-19T23:34:23.002Z,4.28
2023-04-19T23:36:51.077Z,4.43
2023-04-19T23:39:19.520Z,4.10
2023-04-19T23:41:47.374Z,4.60
2023-04-19T23:44:15.192Z,4.20
2023-04-19T23:46:42.675Z,3.33
2023-04-19T23:49:10.422Z,4.38
2023-04-19T23:51:38.222Z,4.13
2023-04-19T23:54:05.837Z,3.88
2023-04-19T23:56:33.473Z,4.22
2023-04-19T23:59:01.065Z,4.30
